AirNav   Air Wisconsin Up To $57,000 Bonus
 
 829 users online  

CN42 Double Creek Airpark
Manton, California, USA

GOING TO MANTON?


FAA INFORMATION EFFECTIVE 26 MARCH 2020

Location

FAA Identifier: CN42
Lat/Long: 40-26-44.5630N 121-52-55.9660W
40-26.742717N 121-52.932767W
40.4457119,-121.8822128
(estimated)
Elevation: 2030 ft. / 619 m (estimated)
Variation: 17E (1985)
From city: 1 mile NW of MANTON, CA
Time zone: UTC -7 (UTC -8 during Standard Time)
Zip code: 96059

Airport Operations

Airport use: Private use. Permission required prior to landing
Control tower: no
ARTCC: OAKLAND CENTER
FSS: RANCHO MURIETA FLIGHT SERVICE STATION
Attendance: DAWN-DUSK
Pattern altitude: 2830 ft. MSL
Wind indicator: yes
Segmented circle: no

Airport Communications

WX ASOS at RDD (19 nm W): PHONE 530-221-7144

Nearby radio navigation aids

VOR radial/distance  VOR name  Freq  Var
RDDr083/19.0REDDING VOR/DME108.4018E
RBLr020/26.4RED BLUFF VORTAC115.7018E
CICr342/39.4CHICO VOR/DME109.8016E

Airport Services

Airframe service: MINOR
Powerplant service: MINOR
Bottled oxygen: NONE
Bulk oxygen: NONE

Runway Information

Runway 6/24

Dimensions: 3400 x 80 ft. / 1036 x 24 m
Surface: turf/dirt
RUNWAY 6  RUNWAY 24
Traffic pattern: leftleft
Runway end identifier lights: nono
Obstructions: 20 ft. trees, 1500 ft. from runway, 20:1 slope to clear20 ft. trees, 225 ft. from runway, 7:1 slope to clear

Airport Ownership and Management from official FAA records

Ownership: Privately-owned
Owner: DOUBLE CREEK AIRPARK PARTNERSHIP
68-333 PEREZ ROAD
CATHEDRAL CITY, CA 92234
Phone 619-746-9400
Manager: ERIC & PEGGY MATSON
Phone 916-474-5757
EMAIL: MATSONUT@MSN.COM

Airport Operational Statistics

Aircraft operations: 160/year
94% transient general aviation
6% local general aviation

Additional Remarks

DO NOT USE TWYS WHEN WET--USE RWYS FOR TAXI.
FOR CD CTC OAKLAND ARTCC AT 510-745-3380.

Instrument Procedures

There are no published instrument procedures at CN42.

Some nearby airports with instrument procedures:

KRDD - Redding Municipal Airport (19 nm W)
KRBL - Red Bluff Municipal Airport (25 nm SW)
KCIC - Chico Municipal Airport (39 nm S)
O37 - Haigh Field Airport (45 nm S)
KWLW - Willows-Glenn County Airport (58 nm S)
 
Loc | Ops | Rwys | IFR | FBO | Links
Com | Nav | Svcs | Stats | Notes
Area around CN42 (Double Creek Airpark)
 
Road maps at: MapQuest Bing Google
 
Aerial photo
No photo
 
Sectional chart

 
Airport distance calculator
Flying to Double Creek Airpark? Find the distance to fly.

From to CN42

Sunrise and sunset
Times for 03-Apr-2020
 Local
(UTC-7)
 Zulu
(UTC)
Morning civil twilight06:2013:20
Sunrise06:4713:47
Sunset19:3402:34
Evening civil twilight20:0203:02

Current date and time
Zulu (UTC)  03-Apr-2020 22:56:39
Local (UTC-7)  03-Apr-2020 15:56:39
 
METAR
KRDD 
20nm W 
032153Z 05004KT 10SM CLR 18/M05 A2996 RMK AO2 SLP143 T01831050
KRBL 
24nm SW 
032154Z AUTO VRB03KT 10SM CLR 18/M09 A2998 RMK AO2 SLP150 T01831089
KO54 
26nm SW 
032235Z AUTO 23008G18KT 10SM CLR 13/M07 A2997 RMK AO1
TAF
KRDD 
20nm W 
031732Z 0318/0418 33011KT P6SM SCT250 FM032300 18006KT P6SM BKN100 FM041200 19008KT 6SM -RA OVC020
NOTAMs
Click for the latest NOTAMs
NOTAMs are issued by the DoD/FAA and will open in a separate window not controlled by AirNav.

 

 
 

Would you like to see your business listed on this page?

 If your business provides an interesting product or service to pilots, flight crews, aircraft, or users of the Double Creek Airpark, you should consider listing it here.  To start the listing process, click on the button below
 
Add a business
 

Other Pages about Double Creek Airpark

Update a link
 
Copyright © AirNav, LLC. All rights reserved. Privacy Policy  Contact